createdAt,value
2018-09-19T00:00:52.392Z,99.99
2018-09-19T00:01:52.381Z,99.99
2018-09-19T00:02:52.347Z,99.99
2018-09-19T00:03:52.340Z,99.99
2018-09-19T00:04:52.318Z,99.99
2018-09-19T00:05:52.275Z,99.99
2018-09-19T00:06:52.260Z,99.99
2018-09-19T00:07:52.241Z,99.99
2018-09-19T00:08:52.227Z,99.99
2018-09-19T00:09:52.207Z,99.99
2018-09-19T00:10:52.176Z,99.99
2018-09-19T00:11:52.163Z,99.99
2018-09-19T00:12:52.140Z,99.99
2018-09-19T00:13:52.116Z,99.99
2018-09-19T00:14:52.084Z,99.99
2018-09-19T00:15:52.069Z,99.99
2018-09-19T00:16:52.038Z,99.99
2018-09-19T00:17:52.303Z,99.99
2018-09-19T00:18:52.247Z,99.99
2018-09-19T00:19:51.998Z,99.99
2018-09-19T00:20:51.967Z,99.99
2018-09-19T00:21:51.961Z,99.99
2018-09-19T00:22:51.927Z,99.99
2018-09-19T00:23:51.888Z,99.99
2018-09-19T00:24:51.870Z,99.99
2018-09-19T00:25:51.850Z,99.99
2018-09-19T00:26:51.836Z,99.99
2018-09-19T00:27:51.797Z,99.99
2018-09-19T00:28:51.784Z,99.99
2018-09-19T00:29:51.754Z,99.99
2018-09-19T00:30:51.743Z,99.99
2018-09-19T00:31:51.708Z,99.99
2018-09-19T00:32:51.688Z,99.99
2018-09-19T00:33:51.682Z,99.99
2018-09-19T00:34:51.659Z,99.99
2018-09-19T00:35:51.629Z,99.99
2018-09-19T00:36:51.615Z,99.99
2018-09-19T00:37:51.577Z,99.99
2018-09-19T00:38:51.568Z,99.99
2018-09-19T00:39:51.553Z,99.99
2018-09-19T00:40:51.529Z,99.99
2018-09-19T00:41:51.494Z,99.99
2018-09-19T00:42:51.470Z,99.99
2018-09-19T00:43:51.454Z,99.99
2018-09-19T00:44:51.428Z,99.99
2018-09-19T00:45:51.403Z,99.99
2018-09-19T00:46:51.409Z,99.99
2018-09-19T00:47:51.365Z,99.99
2018-09-19T00:48:51.343Z,99.99
2018-09-19T00:49:51.314Z,99.99
2018-09-19T00:50:51.315Z,99.99
2018-09-19T00:51:51.285Z,99.99
2018-09-19T00:52:51.259Z,99.99
2018-09-19T00:53:51.231Z,99.99
2018-09-19T00:54:51.224Z,99.99
2018-09-19T00:55:51.201Z,99.99
2018-09-19T00:56:51.161Z,99.99
2018-09-19T00:57:51.155Z,99.99
2018-09-19T00:58:51.139Z,99.99
2018-09-19T00:59:51.114Z,99.99
2018-09-19T01:00:51.077Z,99.99
2018-09-19T01:01:51.076Z,99.99
2018-09-19T01:02:51.039Z,99.99
2018-09-19T01:03:51.012Z,99.99
2018-09-19T01:04:51.004Z,99.99
2018-09-19T01:05:50.968Z,99.99
2018-09-19T01:06:50.948Z,99.99
2018-09-19T01:07:50.935Z,99.99
2018-09-19T01:08:50.918Z,99.99
2018-09-19T01:09:50.874Z,99.99
2018-09-19T01:10:50.874Z,99.99
2018-09-19T01:11:50.839Z,99.99
2018-09-19T01:12:50.810Z,99.99
2018-09-19T01:13:50.793Z,99.99
2018-09-19T01:14:50.770Z,99.99
2018-09-19T01:15:50.784Z,99.99
2018-09-19T01:16:50.737Z,99.99
2018-09-19T01:17:50.702Z,99.99
2018-09-19T01:18:50.695Z,99.99
2018-09-19T01:19:50.679Z,99.99
2018-09-19T01:20:50.654Z,99.99
2018-09-19T01:21:50.626Z,99.99
2018-09-19T01:22:50.608Z,99.99
2018-09-19T01:23:50.572Z,99.99
2018-09-19T01:24:50.553Z,99.99
2018-09-19T01:25:50.544Z,99.99
2018-09-19T01:26:50.526Z,99.99
2018-09-19T01:27:50.486Z,99.99
2018-09-19T01:28:50.460Z,99.99
2018-09-19T01:29:50.445Z,99.99
2018-09-19T01:30:50.436Z,99.99
2018-09-19T01:31:50.411Z,99.99
2018-09-19T01:32:50.377Z,99.99
2018-09-19T01:33:50.370Z,99.99
2018-09-19T01:34:50.446Z,99.99
2018-09-19T01:35:50.321Z,99.99
2018-09-19T01:36:50.289Z,99.99
2018-09-19T01:37:50.268Z,99.99
2018-09-19T01:38:50.260Z,99.99
2018-09-19T01:39:50.232Z,99.99
2018-09-19T01:40:50.215Z,99.99
2018-09-19T01:41:50.178Z,99.99
2018-09-19T01:42:50.166Z,99.99
2018-09-19T01:43:50.148Z,99.99
2018-09-19T01:44:50.128Z,99.99
2018-09-19T01:45:50.088Z,99.99
2018-09-19T01:46:50.064Z,99.99
2018-09-19T01:47:50.045Z,99.99
2018-09-19T01:48:50.021Z,99.99
2018-09-19T01:49:49.998Z,99.99
2018-09-19T01:50:49.984Z,99.99
2018-09-19T01:51:49.968Z,99.99
2018-09-19T01:52:49.951Z,99.99
2018-09-19T01:53:49.910Z,99.99
2018-09-19T01:54:49.894Z,99.99
2018-09-19T01:55:49.880Z,99.99
2018-09-19T01:56:49.881Z,99.99
2018-09-19T01:57:49.823Z,99.99
2018-09-19T01:58:49.817Z,99.99
2018-09-19T01:59:49.789Z,99.99
2018-09-19T02:00:49.768Z,99.99
2018-09-19T02:01:49.740Z,99.99
2018-09-19T02:02:49.730Z,99.99
2018-09-19T02:03:49.689Z,99.99
2018-09-19T02:04:49.664Z,99.99
2018-09-19T02:05:49.659Z,99.99
2018-09-19T02:06:49.638Z,99.99
2018-09-19T02:07:49.625Z,99.99
2018-09-19T02:08:49.590Z,99.99
2018-09-19T02:09:49.560Z,99.99
2018-09-19T02:10:49.649Z,99.99
2018-09-19T02:11:49.528Z,99.99
2018-09-19T02:12:49.508Z,99.99
2018-09-19T02:13:49.480Z,99.99
2018-09-19T02:14:49.449Z,99.99
2018-09-19T02:15:49.437Z,99.99
2018-09-19T02:16:49.412Z,99.99
2018-09-19T02:17:49.391Z,99.99
2018-09-19T02:18:49.361Z,99.99
2018-09-19T02:19:49.336Z,99.99
2018-09-19T02:20:49.313Z,99.99
2018-09-19T02:21:49.291Z,99.99
2018-09-19T02:22:49.268Z,99.99
2018-09-19T02:23:49.258Z,99.99
2018-09-19T02:24:49.227Z,99.99
2018-09-19T02:25:49.198Z,99.99
2018-09-19T02:26:49.191Z,99.99
2018-09-19T02:27:49.157Z,99.99
2018-09-19T02:28:49.132Z,99.99
2018-09-19T02:29:49.125Z,99.99
2018-09-19T02:30:49.100Z,99.99
2018-09-19T02:31:49.070Z,99.99
2018-09-19T02:32:49.057Z,99.99
2018-09-19T02:33:49.037Z,99.99
2018-09-19T02:34:49.021Z,99.99
2018-09-19T02:35:48.981Z,99.99
2018-09-19T02:36:48.955Z,99.99
2018-09-19T02:37:48.945Z,99.99
2018-09-19T02:38:48.909Z,99.99
2018-09-19T02:39:48.899Z,99.99
2018-09-19T02:40:48.913Z,99.99
2018-09-19T02:41:48.846Z,99.99
2018-09-19T02:42:48.826Z,99.99
2018-09-19T02:43:48.801Z,99.99
2018-09-19T02:44:48.796Z,99.99
2018-09-19T02:45:48.773Z,99.99
2018-09-19T02:46:48.782Z,99.99
2018-09-19T02:47:48.720Z,99.99
2018-09-19T02:48:48.690Z,99.99
2018-09-19T02:49:48.688Z,99.99
2018-09-19T02:50:48.646Z,99.99
2018-09-19T02:51:48.630Z,99.99
2018-09-19T02:52:48.601Z,99.99
2018-09-19T02:53:48.590Z,99.99
2018-09-19T02:54:48.561Z,99.99
2018-09-19T02:55:48.547Z,99.99
2018-09-19T02:56:48.512Z,99.99
2018-09-19T02:57:48.500Z,99.99
2018-09-19T02:58:48.491Z,99.99
2018-09-19T02:59:48.465Z,99.99
2018-09-19T03:00:48.437Z,99.99
2018-09-19T03:01:48.409Z,99.99
2018-09-19T03:02:48.426Z,99.99
2018-09-19T03:03:48.352Z,99.99
2018-09-19T03:04:48.332Z,99.99
2018-09-19T03:05:48.302Z,99.99
2018-09-19T03:06:48.327Z,99.99
2018-09-19T03:07:48.269Z,99.99
2018-09-19T03:08:48.242Z,99.99
2018-09-19T03:09:48.215Z,99.99
2018-09-19T03:10:48.208Z,99.99
2018-09-19T03:11:48.172Z,99.99
2018-09-19T03:12:48.162Z,99.99
2018-09-19T03:13:48.142Z,99.99
2018-09-19T03:14:48.108Z,99.99
2018-09-19T03:15:48.096Z,99.99
2018-09-19T03:16:48.077Z,99.99
2018-09-19T03:17:48.337Z,99.99
2018-09-19T03:18:48.014Z,99.99
2018-09-19T03:19:47.998Z,99.99
2018-09-19T03:20:47.989Z,99.99
2018-09-19T03:21:47.948Z,99.99
2018-09-19T03:22:47.939Z,99.99
2018-09-19T03:23:47.914Z,99.99
2018-09-19T03:24:47.897Z,99.99
2018-09-19T03:25:47.861Z,99.99
2018-09-19T03:26:47.835Z,99.99
2018-09-19T03:27:47.829Z,99.99
2018-09-19T03:28:47.800Z,99.99
2018-09-19T03:29:47.788Z,99.99
2018-09-19T03:30:47.765Z,99.99
2018-09-19T03:31:47.723Z,99.99
2018-09-19T03:32:47.699Z,99.99
2018-09-19T03:33:47.680Z,99.99
2018-09-19T03:34:47.652Z,99.99
2018-09-19T03:35:47.629Z,99.99
2018-09-19T03:36:47.632Z,99.99
2018-09-19T03:37:47.587Z,99.99
2018-09-19T03:38:47.579Z,99.99
2018-09-19T03:39:47.544Z,99.99
2018-09-19T03:40:47.514Z,99.99
2018-09-19T03:41:47.511Z,99.99
2018-09-19T03:42:47.475Z,99.99
2018-09-19T03:43:47.461Z,99.99
2018-09-19T03:44:47.432Z,99.99
2018-09-19T03:45:47.408Z,99.99
2018-09-19T03:46:47.381Z,99.99
2018-09-19T03:47:47.443Z,99.99
2018-09-19T03:48:47.352Z,99.99
2018-09-19T03:49:47.326Z,99.99
2018-09-19T03:50:47.301Z,99.99
2018-09-19T03:51:47.284Z,99.99
2018-09-19T03:52:47.260Z,99.99
2018-09-19T03:53:47.234Z,99.99
2018-09-19T03:54:47.207Z,99.99
2018-09-19T03:55:47.195Z,99.99
2018-09-19T03:56:47.166Z,99.99
2018-09-19T03:57:47.145Z,99.99
2018-09-19T03:58:47.125Z,99.99
2018-09-19T03:59:47.091Z,99.99
2018-09-19T04:00:47.069Z,99.99
2018-09-19T04:01:47.044Z,99.99
2018-09-19T04:02:47.017Z,99.99
2018-09-19T04:03:47.106Z,99.99
2018-09-19T04:04:46.981Z,99.99
2018-09-19T04:05:46.966Z,99.99
2018-09-19T04:06:46.933Z,99.99
2018-09-19T04:07:46.911Z,99.99
2018-09-19T04:08:47.034Z,99.99
2018-09-19T04:09:46.876Z,99.99
2018-09-19T04:10:46.860Z,99.99
2018-09-19T04:11:46.839Z,99.99
2018-09-19T04:12:46.812Z,99.99
2018-09-19T04:13:46.791Z,99.99
2018-09-19T04:14:46.762Z,99.99
2018-09-19T04:15:46.752Z,99.99
2018-09-19T04:16:46.719Z,99.99
2018-09-19T04:17:46.761Z,99.99
2018-09-19T04:18:46.660Z,99.99
2018-09-19T04:19:46.638Z,99.99
2018-09-19T04:20:46.626Z,99.99
2018-09-19T04:21:46.603Z,99.99
2018-09-19T04:22:46.586Z,99.99
2018-09-19T04:23:46.551Z,99.99
2018-09-19T04:24:46.534Z,99.99
2018-09-19T04:25:46.513Z,99.99
2018-09-19T04:26:46.489Z,99.99
2018-09-19T04:27:46.471Z,99.99
2018-09-19T04:28:46.434Z,99.99
2018-09-19T04:29:46.408Z,99.99
2018-09-19T04:30:46.392Z,99.99
2018-09-19T04:31:46.369Z,99.99
2018-09-19T04:32:46.339Z,99.99
2018-09-19T04:33:46.316Z,99.99
2018-09-19T04:34:46.319Z,99.99
2018-09-19T04:35:46.276Z,99.99
2018-09-19T04:36:46.263Z,99.99
2018-09-19T04:37:46.229Z,99.99
2018-09-19T04:38:46.221Z,99.99
2018-09-19T04:39:46.187Z,99.99
2018-09-19T04:40:46.162Z,99.99
2018-09-19T04:41:46.152Z,99.99
2018-09-19T04:42:46.118Z,99.99
2018-09-19T04:43:46.099Z,99.99
2018-09-19T04:44:46.077Z,99.99
2018-09-19T04:45:46.055Z,99.99
2018-09-19T04:46:46.026Z,99.99
2018-09-19T04:47:46.015Z,99.99
2018-09-19T04:48:46.001Z,99.99
2018-09-19T04:49:45.968Z,99.99
2018-09-19T04:50:45.936Z,99.99
2018-09-19T04:51:45.925Z,99.99
2018-09-19T04:52:45.905Z,99.99
2018-09-19T04:53:45.886Z,99.99
2018-09-19T04:54:45.847Z,99.99
2018-09-19T04:55:45.832Z,99.99
2018-09-19T04:56:45.796Z,99.99
2018-09-19T04:57:45.771Z,99.99
2018-09-19T04:58:45.763Z,99.99
2018-09-19T04:59:45.744Z,99.99
2018-09-19T05:00:45.722Z,99.99
2018-09-19T05:01:45.681Z,99.99
2018-09-19T05:02:45.673Z,99.99
2018-09-19T05:03:45.657Z,99.99
2018-09-19T05:04:45.632Z,99.99
2018-09-19T05:05:45.732Z,99.99
2018-09-19T05:06:45.586Z,99.99
2018-09-19T05:07:45.565Z,99.99
2018-09-19T05:08:45.528Z,99.99
2018-09-19T05:09:45.521Z,99.99
2018-09-19T05:10:45.490Z,99.99
2018-09-19T05:11:45.466Z,99.99
2018-09-19T05:12:45.437Z,99.99
2018-09-19T05:13:45.417Z,99.99
2018-09-19T05:14:45.404Z,99.99
2018-09-19T05:15:45.380Z,99.99
2018-09-19T05:16:45.360Z,99.99
2018-09-19T05:17:45.334Z,99.99
2018-09-19T05:18:45.310Z,99.99
2018-09-19T05:19:45.279Z,99.99
2018-09-19T05:20:45.268Z,99.99
2018-09-19T05:21:45.253Z,99.99
2018-09-19T05:22:45.222Z,99.99
2018-09-19T05:23:45.182Z,99.99
2018-09-19T05:24:45.183Z,99.99
2018-09-19T05:25:45.137Z,99.99
2018-09-19T05:26:45.129Z,99.99
2018-09-19T05:27:45.104Z,99.99
2018-09-19T05:28:45.069Z,99.99
2018-09-19T05:29:45.062Z,99.99
2018-09-19T05:30:45.049Z,99.99
2018-09-19T05:31:45.097Z,99.99
2018-09-19T05:32:45.000Z,99.99
2018-09-19T05:33:44.964Z,99.99
2018-09-19T05:34:44.940Z,99.99
2018-09-19T05:35:44.915Z,99.99
2018-09-19T05:36:44.908Z,99.99
2018-09-19T05:37:44.869Z,99.99
2018-09-19T05:38:44.843Z,99.99
2018-09-19T05:39:44.835Z,99.99
2018-09-19T05:40:44.800Z,99.99
2018-09-19T05:41:44.796Z,99.99
2018-09-19T05:42:44.769Z,99.99
2018-09-19T05:43:44.736Z,99.99
2018-09-19T05:44:44.723Z,99.99
2018-09-19T05:45:44.688Z,99.99
2018-09-19T05:46:44.673Z,99.99
2018-09-19T05:47:44.657Z,99.99
2018-09-19T05:48:44.624Z,99.99
2018-09-19T05:49:44.615Z,99.99
2018-09-19T05:50:44.595Z,99.99
2018-09-19T05:51:44.553Z,99.99
2018-09-19T05:52:44.535Z,99.99
2018-09-19T05:53:44.529Z,99.99
2018-09-19T05:54:44.502Z,99.99
2018-09-19T05:55:44.482Z,99.99
2018-09-19T05:56:44.451Z,99.99
2018-09-19T05:57:44.423Z,99.99
2018-09-19T05:58:44.395Z,99.99
2018-09-19T05:59:44.372Z,99.99
2018-09-19T06:00:44.367Z,99.99
2018-09-19T06:01:44.328Z,99.99
2018-09-19T06:02:44.309Z,99.99
2018-09-19T06:03:44.282Z,99.99
2018-09-19T06:04:44.268Z,99.99
2018-09-19T06:05:44.243Z,99.99
2018-09-19T06:06:44.224Z,99.99
2018-09-19T06:07:44.191Z,99.99
2018-09-19T06:08:44.183Z,99.99
2018-09-19T06:09:44.160Z,99.99
2018-09-19T06:10:44.127Z,99.99
2018-09-19T06:11:44.116Z,99.99
2018-09-19T06:12:44.125Z,99.99
2018-09-19T06:13:44.065Z,99.99
2018-09-19T06:14:44.035Z,99.99
2018-09-19T06:15:44.027Z,99.99
2018-09-19T06:16:44.000Z,99.99
2018-09-19T06:17:43.981Z,99.99
2018-09-19T06:18:43.952Z,99.99
2018-09-19T06:19:43.936Z,99.99
2018-09-19T06:20:43.917Z,99.99
2018-09-19T06:21:43.888Z,99.99
2018-09-19T06:22:43.860Z,99.99
2018-09-19T06:23:43.833Z,99.99
2018-09-19T06:24:43.815Z,99.99
2018-09-19T06:25:43.792Z,99.99
2018-09-19T06:26:43.768Z,99.99
2018-09-19T06:27:43.768Z,99.99
2018-09-19T06:28:43.719Z,99.99
2018-09-19T06:29:43.701Z,99.99
2018-09-19T06:30:43.689Z,99.99
2018-09-19T06:31:43.673Z,99.99
2018-09-19T06:32:43.690Z,99.99
2018-09-19T06:33:43.628Z,99.99
2018-09-19T06:34:43.590Z,99.99
2018-09-19T06:35:43.567Z,99.99
2018-09-19T06:36:43.544Z,99.99
2018-09-19T06:37:43.525Z,99.99
2018-09-19T06:38:43.506Z,99.99
2018-09-19T06:39:43.482Z,99.99
2018-09-19T06:40:43.562Z,99.99
2018-09-19T06:41:43.430Z,99.99
2018-09-19T06:42:43.417Z,99.99
2018-09-19T06:43:43.388Z,99.99
2018-09-19T06:44:43.362Z,99.99
2018-09-19T06:45:43.403Z,99.99
2018-09-19T06:46:43.361Z,99.99
2018-09-19T06:47:43.300Z,99.99
2018-09-19T06:48:43.290Z,99.99
2018-09-19T06:49:43.267Z,99.99
2018-09-19T06:50:43.239Z,99.99
2018-09-19T06:51:43.220Z,99.99
2018-09-19T06:52:43.180Z,99.99
2018-09-19T06:53:43.165Z,99.99
2018-09-19T06:54:43.135Z,99.99
2018-09-19T06:55:43.137Z,99.99
2018-09-19T06:56:43.099Z,99.99
2018-09-19T06:57:43.067Z,99.99
2018-09-19T06:58:43.056Z,99.99
2018-09-19T06:59:43.112Z,99.99
2018-09-19T07:00:43.008Z,99.99
2018-09-19T07:01:42.995Z,99.99
2018-09-19T07:02:42.976Z,99.99
2018-09-19T07:03:42.952Z,99.99
2018-09-19T07:04:42.918Z,99.99
2018-09-19T07:05:42.951Z,99.99
2018-09-19T07:06:42.883Z,99.99
2018-09-19T07:07:42.856Z,99.99
2018-09-19T07:08:42.822Z,99.99
2018-09-19T07:09:42.814Z,99.99
2018-09-19T07:10:42.820Z,99.99
2018-09-19T07:11:42.767Z,99.99
2018-09-19T07:12:42.737Z,99.99
2018-09-19T07:13:42.725Z,99.99
2018-09-19T07:14:42.707Z,99.99
2018-09-19T07:15:42.678Z,99.99
2018-09-19T07:16:42.652Z,99.99
2018-09-19T07:17:42.632Z,99.99
2018-09-19T07:18:42.655Z,99.99
2018-09-19T07:19:42.579Z,99.99
2018-09-19T07:20:42.570Z,99.99
2018-09-19T07:21:42.528Z,99.99
2018-09-19T07:22:42.518Z,99.99
2018-09-19T07:23:42.576Z,99.99
2018-09-19T07:24:42.464Z,99.99
2018-09-19T07:25:42.450Z,99.99
2018-09-19T07:26:42.420Z,99.99
2018-09-19T07:27:42.395Z,99.99
2018-09-19T07:28:42.377Z,99.99
2018-09-19T07:29:42.369Z,99.99
2018-09-19T07:30:42.335Z,99.99
2018-09-19T07:31:42.317Z,99.99
2018-09-19T07:32:42.296Z,99.99
2018-09-19T07:33:42.270Z,99.99
2018-09-19T07:34:42.316Z,99.99
2018-09-19T07:35:42.234Z,99.99
2018-09-19T07:36:42.195Z,99.99
2018-09-19T07:37:42.189Z,99.99
2018-09-19T07:38:42.149Z,99.99
2018-09-19T07:39:42.180Z,99.99
2018-09-19T07:40:42.103Z,99.99
2018-09-19T07:41:42.090Z,99.99
2018-09-19T07:42:42.057Z,99.99
2018-09-19T07:43:42.054Z,99.99
2018-09-19T07:44:42.022Z,99.99
2018-09-19T07:45:42.005Z,99.99
2018-09-19T07:46:42.092Z,99.99
2018-09-19T07:47:41.962Z,99.99
2018-09-19T07:48:41.940Z,99.99
2018-09-19T07:49:41.910Z,99.99
2018-09-19T07:50:41.895Z,99.99
2018-09-19T07:51:41.855Z,99.99
2018-09-19T07:52:41.849Z,99.99
2018-09-19T07:53:41.833Z,99.99
2018-09-19T07:54:41.816Z,99.99
2018-09-19T07:55:41.776Z,99.99
2018-09-19T07:56:41.752Z,99.99
2018-09-19T07:57:41.715Z,99.99
2018-09-19T07:58:41.709Z,99.99
2018-09-19T07:59:41.693Z,99.99
2018-09-19T08:00:41.773Z,99.99
2018-09-19T08:01:41.637Z,99.99
2018-09-19T08:02:41.622Z,99.99
2018-09-19T08:03:41.605Z,99.99
2018-09-19T08:04:41.571Z,99.99
2018-09-19T08:05:41.553Z,99.99
2018-09-19T08:06:41.533Z,99.99
2018-09-19T08:07:41.495Z,99.99
2018-09-19T08:08:41.489Z,99.99
2018-09-19T08:09:41.457Z,99.99
2018-09-19T08:10:41.443Z,99.99
2018-09-19T08:11:41.410Z,99.99
2018-09-19T08:12:41.385Z,99.99
2018-09-19T08:13:41.369Z,99.99
2018-09-19T08:14:41.335Z,99.99
2018-09-19T08:15:41.328Z,99.99
2018-09-19T08:16:41.326Z,99.99
2018-09-19T08:17:41.284Z,99.99
2018-09-19T08:18:41.258Z,99.99
2018-09-19T08:19:41.222Z,99.99
2018-09-19T08:20:41.204Z,99.99
2018-09-19T08:21:41.199Z,99.99
2018-09-19T08:22:41.213Z,99.99
2018-09-19T08:23:41.143Z,99.99
2018-09-19T08:24:41.109Z,99.99
2018-09-19T08:25:41.115Z,99.99
2018-09-19T08:26:41.087Z,99.99
2018-09-19T08:27:41.060Z,99.99
2018-09-19T08:28:41.029Z,99.99
2018-09-19T08:29:40.997Z,99.99
2018-09-19T08:30:40.981Z,99.99
2018-09-19T08:31:40.970Z,99.99
2018-09-19T08:32:40.930Z,99.99
2018-09-19T08:33:40.922Z,99.99
2018-09-19T08:34:40.904Z,99.99
2018-09-19T08:35:40.879Z,99.99
2018-09-19T08:36:40.847Z,99.99
2018-09-19T08:37:40.819Z,99.99
2018-09-19T08:38:40.801Z,99.99
2018-09-19T08:39:40.783Z,99.99
2018-09-19T08:40:40.752Z,99.99
2018-09-19T08:41:40.727Z,99.99
2018-09-19T08:42:40.700Z,99.99
2018-09-19T08:43:40.692Z,99.99
2018-09-19T08:44:40.661Z,99.99
2018-09-19T08:45:40.631Z,99.99
2018-09-19T08:46:40.624Z,99.99
2018-09-19T08:47:40.603Z,99.99
2018-09-19T08:48:40.581Z,99.99
2018-09-19T08:49:40.561Z,99.99
2018-09-19T08:50:40.578Z,99.99
2018-09-19T08:51:40.501Z,99.99
2018-09-19T08:52:40.482Z,99.99
2018-09-19T08:53:40.456Z,99.99
2018-09-19T08:54:40.450Z,99.99
2018-09-19T08:55:40.414Z,99.99
2018-09-19T08:56:40.398Z,99.99
2018-09-19T08:57:40.381Z,99.99
2018-09-19T08:58:40.349Z,99.99
2018-09-19T08:59:40.318Z,99.99
2018-09-19T09:00:40.311Z,99.99
2018-09-19T09:01:40.286Z,99.99
2018-09-19T09:02:40.259Z,99.99
2018-09-19T09:03:40.232Z,99.99
2018-09-19T09:04:40.224Z,99.99
2018-09-19T09:05:40.192Z,99.99
2018-09-19T09:06:40.178Z,99.99
2018-09-19T09:07:40.135Z,99.99
2018-09-19T09:08:40.123Z,99.99
2018-09-19T09:09:40.103Z,99.99
2018-09-19T09:10:40.084Z,99.99
2018-09-19T09:11:40.065Z,99.99
2018-09-19T09:12:40.060Z,99.99
2018-09-19T09:13:40.021Z,99.99
2018-09-19T09:14:39.992Z,99.99
2018-09-19T09:15:39.976Z,99.99
2018-09-19T09:16:39.945Z,99.99
2018-09-19T09:18:13.120Z,99.99
2018-09-19T09:18:39.892Z,99.99
2018-09-19T09:19:39.884Z,99.99
2018-09-19T09:20:39.851Z,99.99
2018-09-19T09:21:39.824Z,99.99
2018-09-19T09:22:39.821Z,99.99
2018-09-19T09:23:39.795Z,99.99
2018-09-19T09:24:39.770Z,99.99
2018-09-19T09:25:39.741Z,99.99
2018-09-19T09:26:39.751Z,99.99
2018-09-19T09:27:39.708Z,99.99
2018-09-19T09:28:39.671Z,99.99
2018-09-19T09:29:39.647Z,99.99
2018-09-19T09:30:39.640Z,99.99
2018-09-19T09:31:39.605Z,99.99
2018-09-19T09:32:39.597Z,99.99
2018-09-19T09:33:39.561Z,99.99
2018-09-19T09:34:39.540Z,99.99
2018-09-19T09:35:39.531Z,99.99
2018-09-19T09:36:39.569Z,99.99
2018-09-19T09:37:39.470Z,99.99
2018-09-19T09:38:39.471Z,99.99
2018-09-19T09:39:39.441Z,99.99
2018-09-19T09:40:39.459Z,99.99
2018-09-19T09:41:39.398Z,99.99
2018-09-19T09:42:39.378Z,99.99
2018-09-19T09:43:39.422Z,98.82
2018-09-19T09:44:39.333Z,98.68
2018-09-19T09:45:39.297Z,97.91
2018-09-19T09:46:39.281Z,98.00
2018-09-19T09:47:39.356Z,97.72
2018-09-19T09:48:39.233Z,97.62
2018-09-19T09:49:39.227Z,96.31
2018-09-19T09:50:39.202Z,95.35
2018-09-19T09:51:39.298Z,95.01
2018-09-19T09:52:39.167Z,94.00
2018-09-19T09:53:39.151Z,94.20
2018-09-19T09:54:39.111Z,94.48
2018-09-19T09:55:39.109Z,94.34
2018-09-19T09:56:39.082Z,93.27
2018-09-19T09:57:39.054Z,92.16
2018-09-19T09:58:39.033Z,91.73
2018-09-19T09:59:39.030Z,92.31
2018-09-19T10:00:38.991Z,92.79
2018-09-19T10:01:38.976Z,93.80
2018-09-19T10:02:38.968Z,94.96
2018-09-19T10:03:38.938Z,94.48
2018-09-19T10:04:38.903Z,93.95
2018-09-19T10:05:38.892Z,92.50
2018-09-19T10:06:38.882Z,92.50
2018-09-19T10:07:38.855Z,92.55
2018-09-19T10:08:38.844Z,91.58
2018-09-19T10:09:38.803Z,91.72
2018-09-19T10:10:38.790Z,90.03
2018-09-19T10:11:38.780Z,89.06
2018-09-19T10:12:38.760Z,87.81
2018-09-19T10:13:38.787Z,87.03
2018-09-19T10:14:38.875Z,87.99
2018-09-19T10:15:38.701Z,88.48
2018-09-19T10:16:38.667Z,87.81
2018-09-19T10:17:38.661Z,88.09
2018-09-19T10:18:38.631Z,87.32
2018-09-19T10:19:38.616Z,87.23
2018-09-19T10:20:38.610Z,88.57
2018-09-19T10:21:38.583Z,87.81
2018-09-19T10:22:38.574Z,87.90
2018-09-19T10:23:38.547Z,87.03
2018-09-19T10:24:38.534Z,87.46
2018-09-19T10:25:38.509Z,86.01
2018-09-19T10:26:38.492Z,85.72
2018-09-19T10:27:38.468Z,85.62
2018-09-19T10:28:38.452Z,86.93
2018-09-19T10:29:38.553Z,87.51
2018-09-19T10:30:38.406Z,87.99
2018-09-19T10:31:38.400Z,86.69
2018-09-19T10:32:38.383Z,86.55
2018-09-19T10:33:38.354Z,86.93
2018-09-19T10:34:38.342Z,87.41
2018-09-19T10:35:38.343Z,87.13
2018-09-19T10:36:38.317Z,87.85
2018-09-19T10:37:38.289Z,88.53
2018-09-19T10:38:38.266Z,89.75
2018-09-19T10:39:38.257Z,90.03
2018-09-19T10:40:38.225Z,90.57
2018-09-19T10:41:38.329Z,91.25
2018-09-19T10:42:38.202Z,91.44
2018-09-19T10:43:38.190Z,91.25
2018-09-19T10:44:38.164Z,91.44
2018-09-19T10:45:38.238Z,91.44
2018-09-19T10:46:38.133Z,91.19
2018-09-19T10:47:38.109Z,90.13
2018-09-19T10:48:38.081Z,90.71
2018-09-19T10:49:38.139Z,90.28
2018-09-19T10:50:38.054Z,90.67
2018-09-19T10:51:38.023Z,92.11
2018-09-19T10:52:38.013Z,93.42
2018-09-19T10:53:37.990Z,92.94
2018-09-19T10:54:37.971Z,93.04
2018-09-19T10:55:37.970Z,93.23
2018-09-19T10:57:11.158Z,94.38
2018-09-19T10:57:37.926Z,94.38
2018-09-19T10:58:37.913Z,93.27
2018-09-19T10:59:37.890Z,91.87
2018-09-19T11:00:37.860Z,89.69
2018-09-19T11:01:37.838Z,88.77
2018-09-19T11:02:37.920Z,88.29
2018-09-19T11:03:37.799Z,86.93
2018-09-19T11:04:37.777Z,87.51
2018-09-19T11:05:37.764Z,86.69
2018-09-19T11:06:37.761Z,86.10
2018-09-19T11:07:37.730Z,86.65
2018-09-19T11:08:37.723Z,86.45
2018-09-19T11:09:37.702Z,86.93
2018-09-19T11:10:37.675Z,87.03
2018-09-19T11:11:37.651Z,86.55
2018-09-19T11:12:37.641Z,86.59
2018-09-19T11:13:37.617Z,86.20
2018-09-19T11:14:37.614Z,86.10
2018-09-19T11:15:37.592Z,86.01
2018-09-19T11:16:37.582Z,86.45
2018-09-19T11:17:37.566Z,87.03
2018-09-19T11:18:37.559Z,87.51
2018-09-19T11:19:37.515Z,87.71
2018-09-19T11:20:37.508Z,87.71
2018-09-19T11:21:37.479Z,87.99
2018-09-19T11:22:37.458Z,87.32
2018-09-19T11:23:37.453Z,86.49
2018-09-19T11:24:37.443Z,85.62
2018-09-19T11:25:37.425Z,85.52
2018-09-19T11:26:37.411Z,85.24
2018-09-19T11:27:37.376Z,85.58
2018-09-19T11:28:37.356Z,86.59
2018-09-19T11:29:37.361Z,84.89
2018-09-19T11:30:37.343Z,83.73
2018-09-19T11:31:37.323Z,84.41
2018-09-19T11:32:37.287Z,84.89
2018-09-19T11:33:37.313Z,84.06
2018-09-19T11:34:37.257Z,83.00
2018-09-19T11:35:37.332Z,82.65
2018-09-19T11:36:37.236Z,81.52
2018-09-19T11:37:37.207Z,80.07
2018-09-19T11:38:37.209Z,80.26
2018-09-19T11:39:37.191Z,79.47
2018-09-19T11:40:37.174Z,79.06
2018-09-19T11:41:37.161Z,81.30
2018-09-19T11:42:37.137Z,84.94
2018-09-19T11:43:37.116Z,86.35
2018-09-19T11:44:37.099Z,86.74
2018-09-19T11:45:37.085Z,86.93
2018-09-19T11:46:37.072Z,88.05
2018-09-19T11:47:37.067Z,87.03
2018-09-19T11:48:37.052Z,86.55
2018-09-19T11:49:37.020Z,85.82
2018-09-19T11:50:37.004Z,85.14
2018-09-19T11:51:37.001Z,84.31
2018-09-19T11:52:36.983Z,84.17
2018-09-19T11:53:36.973Z,85.14
2018-09-19T11:54:36.953Z,85.82
2018-09-19T11:55:36.933Z,84.60
2018-09-19T11:56:36.915Z,84.16
2018-09-19T11:57:36.888Z,82.75
2018-09-19T11:58:36.884Z,81.97
2018-09-19T11:59:36.854Z,81.54
2018-09-19T12:00:36.852Z,81.48
2018-09-19T12:01:36.834Z,81.48
2018-09-19T12:02:36.810Z,80.71
2018-09-19T12:03:36.810Z,81.00
2018-09-19T12:04:36.789Z,80.03
2018-09-19T12:05:36.782Z,81.48
2018-09-19T12:06:36.756Z,82.07
2018-09-19T12:07:36.737Z,81.48
2018-09-19T12:08:36.731Z,81.58
2018-09-19T12:09:36.716Z,81.83
2018-09-19T12:10:36.704Z,82.70
2018-09-19T12:11:36.672Z,82.65
2018-09-19T12:12:36.659Z,81.43
2018-09-19T12:13:36.646Z,79.78
2018-09-19T12:14:36.642Z,79.53
2018-09-19T12:15:36.630Z,78.31
2018-09-19T12:16:36.597Z,78.75
2018-09-19T12:17:36.583Z,79.49
2018-09-19T12:18:36.584Z,80.03
2018-09-19T12:19:36.581Z,81.39
2018-09-19T12:20:36.557Z,81.83
2018-09-19T12:21:36.527Z,82.51
2018-09-19T12:22:36.513Z,83.38
2018-09-19T12:23:36.515Z,83.28
2018-09-19T12:24:36.487Z,82.51
2018-09-19T12:25:36.469Z,83.18
2018-09-19T12:26:36.537Z,83.96
2018-09-19T12:27:36.445Z,83.48
2018-09-19T12:28:36.592Z,82.75
2018-09-19T12:29:36.426Z,81.48
2018-09-19T12:30:36.397Z,80.80
2018-09-19T12:31:36.393Z,80.55
2018-09-19T12:32:36.368Z,80.26
2018-09-19T12:33:36.357Z,79.04
2018-09-19T12:34:36.347Z,79.14
2018-09-19T12:35:36.348Z,79.49
2018-09-19T12:36:36.324Z,80.52
2018-09-19T12:37:36.312Z,81.29
2018-09-19T12:38:36.289Z,82.60
2018-09-19T12:39:36.356Z,83.48
2018-09-19T12:40:36.256Z,83.18
2018-09-19T12:41:36.258Z,84.16
2018-09-19T12:42:36.233Z,83.13
2018-09-19T12:43:36.237Z,81.39
2018-09-19T12:44:36.215Z,81.68
2018-09-19T12:45:36.189Z,81.58
2018-09-19T12:46:36.187Z,81.97
2018-09-19T12:47:36.173Z,82.65
2018-09-19T12:48:36.142Z,82.45
2018-09-19T12:49:36.144Z,81.39
2018-09-19T12:50:36.118Z,81.57
2018-09-19T12:51:36.112Z,79.04
2018-09-19T12:52:36.093Z,80.21